Time;durP1;ratioP1;P1;durP2;ratioP2;P2;SDS_P1;SDS_P2;PMS_P1;PMS_P2;Temp;Humidity;BMP_temperature;BMP_pressure;BME280_temperature;BME280_humidity;BME280_pressure;Samples;Min_cycle;Max_cycle;Signal;HPM_P1;HPM_P2
2022/09/20 00:00:42;;;;;;;0.30;0.30;;;;;;;9.86;72.67;94711.09;5131938;27;20197;-73
2022/09/20 00:03:09;;;;;;;0.20;0.20;;;;;;;9.86;72.55;94716.53;5130782;27;20254;-73
2022/09/20 00:05:37;;;;;;;0.30;0.30;;;;;;;9.71;73.14;94719.72;5130195;27;20228;-75
2022/09/20 00:08:05;;;;;;;0.20;0.20;;;;;;;9.67;73.66;94728.81;5130542;27;20227;-73
2022/09/20 00:10:35;;;;;;;0.20;0.20;;;;;;;9.65;73.32;94721.00;5131385;27;20273;-73
2022/09/20 00:13:02;;;;;;;0.20;0.20;;;;;;;9.61;73.41;94730.88;5130971;27;20201;-73
2022/09/20 00:15:30;;;;;;;0.82;0.68;;;;;;;9.59;73.04;94733.09;5131366;27;20277;-74
2022/09/20 00:17:57;;;;;;;0.20;0.20;;;;;;;9.62;72.15;94732.47;5130777;27;20197;-72
2022/09/20 00:20:25;;;;;;;0.20;0.20;;;;;;;9.69;72.19;94732.78;5130988;27;20225;-71
2022/09/20 00:22:52;;;;;;;0.68;0.60;;;;;;;9.68;71.63;94735.81;5130753;27;20660;-76
2022/09/20 00:25:21;;;;;;;1.20;0.95;;;;;;;9.67;72.04;94732.31;5130766;27;20229;-71
2022/09/20 00:27:48;;;;;;;1.48;0.90;;;;;;;9.68;72.43;94735.81;5131098;27;20673;-74
2022/09/20 00:30:15;;;;;;;0.52;0.52;;;;;;;9.68;72.50;94731.19;5131565;27;20232;-72
2022/09/20 00:32:43;;;;;;;0.20;0.20;;;;;;;9.64;72.45;94735.66;5130693;27;20260;-73
2022/09/20 00:35:09;;;;;;;0.20;0.20;;;;;;;9.60;72.87;94730.06;5130799;27;20831;-73
2022/09/20 00:37:38;;;;;;;0.20;0.20;;;;;;;9.54;72.79;94738.69;5131355;27;20201;-73
2022/09/20 00:40:09;;;;;;;0.20;0.20;;;;;;;9.55;72.92;94732.94;5130593;27;20502;-74
2022/09/20 00:42:36;;;;;;;0.20;0.20;;;;;;;9.50;73.10;94740.41;5131235;27;20261;-73
2022/09/20 00:45:05;;;;;;;0.20;0.20;;;;;;;9.47;72.81;94735.63;5131090;27;20305;-72
2022/09/20 00:47:40;;;;;;;0.20;0.20;;;;;;;9.43;73.27;94730.06;5130630;27;20735;-73
2022/09/20 00:50:26;;;;;;;0.47;0.47;;;;;;;9.37;73.76;94730.53;5130714;27;20294;-73
2022/09/20 00:52:58;;;;;;;0.20;0.20;;;;;;;9.37;73.40;94728.63;5130452;27;20185;-73
2022/09/20 00:55:26;;;;;;;0.20;0.20;;;;;;;9.31;73.29;94726.38;5129759;27;20284;-71
2022/09/20 00:57:54;;;;;;;0.43;0.43;;;;;;;9.35;73.00;94738.16;5130361;27;20663;-73
2022/09/20 01:00:22;;;;;;;0.70;0.70;;;;;;;9.33;73.37;94740.41;5130855;27;20205;-73
2022/09/20 01:02:53;;;;;;;0.10;0.10;;;;;;;9.41;72.57;94745.03;5130551;27;20560;-73
2022/09/20 01:05:22;;;;;;;0.20;0.20;;;;;;;9.40;72.15;94736.13;5130734;27;20281;-72
2022/09/20 01:07:51;;;;;;;0.20;0.20;;;;;;;9.35;72.82;94727.34;5130277;27;20253;-73
2022/09/20 01:10:18;;;;;;;0.30;0.30;;;;;;;9.32;72.89;94723.38;5130189;27;20253;-73
2022/09/20 01:12:46;;;;;;;0.20;0.20;;;;;;;9.33;72.91;94724.16;5130021;27;20320;-73
2022/09/20 01:15:14;;;;;;;0.20;0.20;;;;;;;9.33;72.42;94726.88;5130555;27;20201;-73
2022/09/20 01:17:47;;;;;;;0.52;0.52;;;;;;;9.32;71.30;94728.00;5130276;27;20296;-73
2022/09/20 01:20:18;;;;;;;0.13;0.13;;;;;;;9.34;71.41;94731.16;5130348;27;20224;-74
2022/09/20 01:23:02;;;;;;;0.52;0.52;;;;;;;9.38;71.60;94727.53;5130281;27;20208;-73
2022/09/20 01:25:49;;;;;;;0.20;0.20;;;;;;;9.37;70.69;94735.94;5126573;27;20273;-73
2022/09/20 01:28:17;;;;;;;0.20;0.20;;;;;;;9.36;70.21;94734.34;5130044;27;20652;-73
2022/09/20 01:30:51;;;;;;;0.20;0.20;;;;;;;9.35;69.50;94717.34;5130223;27;20221;-74
2022/09/20 01:33:28;;;;;;;0.10;0.10;;;;;;;9.36;69.47;94712.72;5130189;27;20233;-74
2022/09/20 01:35:58;;;;;;;0.20;0.20;;;;;;;9.31;69.49;94716.38;5130290;28;20204;-75
2022/09/20 01:38:34;;;;;;;0.13;0.13;;;;;;;9.22;69.88;94710.97;5129893;28;20273;-73
2022/09/20 01:41:07;;;;;;;0.20;0.20;;;;;;;9.16;70.02;94717.63;5130011;28;20687;-71
2022/09/20 01:43:40;;;;;;;0.30;0.30;;;;;;;9.13;70.26;94723.69;5129818;28;20197;-73
2022/09/20 01:46:21;;;;;;;0.22;0.22;;;;;;;9.06;70.76;94715.25;5129584;28;20743;-73
2022/09/20 01:48:50;;;;;;;0.28;0.28;;;;;;;9.06;70.88;94720.63;5130110;28;20233;-73
2022/09/20 01:51:57;;;;;;;0.20;0.20;;;;;;;9.00;70.84;94727.31;5130086;28;20736;-73
2022/09/20 01:54:56;;;;;;;0.20;0.20;;;;;;;8.94;71.69;94733.97;5130278;28;20201;-73
2022/09/20 01:57:50;;;;;;;0.20;0.20;;;;;;;8.99;71.58;94731.13;5128887;28;20446;-73
2022/09/20 02:00:22;;;;;;;0.35;0.35;;;;;;;8.97;71.52;94727.94;5119789;27;20265;-73
2022/09/20 02:03:33;;;;;;;0.20;0.20;;;;;;;8.91;72.00;94723.78;5134189;27;20203;-73
2022/09/20 02:06:22;;;;;;;0.28;0.28;;;;;;;8.92;71.84;94725.38;5133841;27;20270;-72
2022/09/20 02:09:26;;;;;;;0.70;0.70;;;;;;;8.82;72.25;94714.88;5134101;27;20193;-72
2022/09/20 02:12:11;;;;;;;0.70;0.70;;;;;;;8.77;72.93;94706.91;5061003;28;20269;-74
2022/09/20 02:14:48;;;;;;;0.80;0.80;;;;;;;8.77;73.01;94702.31;5115862;27;20204;-73
2022/09/20 02:17:27;;;;;;;0.60;0.60;;;;;;;8.69;73.23;94699.59;5134011;27;20200;-73
2022/09/20 02:20:09;;;;;;;1.27;0.80;;;;;;;8.66;73.19;94705.63;5133841;27;20209;-72
2022/09/20 02:22:51;;;;;;;0.85;0.80;;;;;;;8.61;73.23;94708.47;5133774;27;20723;-72
2022/09/20 02:25:36;;;;;;;1.33;1.10;;;;;;;8.62;73.82;94699.25;5133564;27;20233;-72
2022/09/20 02:28:18;;;;;;;0.20;0.20;;;;;;;8.61;73.41;94697.66;5133146;27;20273;-73
2022/09/20 02:30:55;;;;;;;0.22;0.22;;;;;;;8.58;73.76;94698.28;5133914;27;20197;-72
2022/09/20 02:34:03;;;;;;;0.20;0.20;;;;;;;8.58;73.66;94703.69;5133206;27;20589;-72
2022/09/20 02:36:46;;;;;;;1.60;0.93;;;;;;;8.50;74.24;94703.34;5133720;27;20197;-72
2022/09/20 02:39:17;;;;;;;0.80;0.70;;;;;;;8.45;74.46;94711.59;5133339;27;20351;-73
2022/09/20 02:41:59;;;;;;;1.00;0.90;;;;;;;8.45;74.61;94710.78;5133663;27;20197;-73
2022/09/20 02:44:45;;;;;;;0.20;0.20;;;;;;;8.47;75.25;94712.06;5132948;27;20270;-73
2022/09/20 02:47:22;;;;;;;0.40;0.40;;;;;;;8.40;76.02;94719.81;5130815;27;20205;-73
2022/09/20 02:50:08;;;;;;;0.20;0.20;;;;;;;8.40;75.98;94719.81;5133173;27;20646;-73
2022/09/20 02:52:42;;;;;;;0.20;0.20;;;;;;;8.33;76.61;94732.97;5133459;27;20196;-72
2022/09/20 02:55:15;;;;;;;0.20;0.20;;;;;;;8.34;76.70;94725.66;5132809;27;20261;-73
2022/09/20 02:57:52;;;;;;;0.20;0.20;;;;;;;8.37;77.43;94728.53;5132370;27;20246;-72
2022/09/20 03:00:22;;;;;;;0.20;0.20;;;;;;;8.29;77.91;94733.88;5132290;27;20249;-72
2022/09/20 03:03:03;;;;;;;0.30;0.30;;;;;;;8.33;77.53;94732.19;5132898;27;20197;-72
2022/09/20 03:05:43;;;;;;;0.20;0.20;;;;;;;8.30;77.35;94736.25;5133269;27;20224;-72
2022/09/20 03:08:30;;;;;;;0.35;0.35;;;;;;;8.28;77.59;94738.47;5133157;27;20226;-72
2022/09/20 03:11:03;;;;;;;0.20;0.20;;;;;;;8.25;77.47;94739.06;5132104;27;20200;-73
2022/09/20 03:13:48;;;;;;;0.20;0.20;;;;;;;8.20;77.13;94731.91;5132879;27;20205;-72
2022/09/20 03:16:23;;;;;;;0.65;0.65;;;;;;;8.18;77.48;94733.34;5132292;27;20257;-71
2022/09/20 03:19:00;;;;;;;0.45;0.45;;;;;;;8.07;77.82;94734.69;5132877;27;20212;-73
2022/09/20 03:21:40;;;;;;;0.20;0.20;;;;;;;8.09;77.75;94740.56;5132382;27;20204;-73
2022/09/20 03:24:19;;;;;;;0.52;0.52;;;;;;;8.13;77.52;94744.25;5132621;27;20197;-73
2022/09/20 03:26:56;;;;;;;0.30;0.30;;;;;;;8.18;77.42;94750.34;5132295;27;20208;-75
2022/09/20 03:29:37;;;;;;;0.20;0.20;;;;;;;8.19;77.12;94751.91;5132315;27;20192;-73
2022/09/20 03:32:21;;;;;;;1.42;1.10;;;;;;;8.11;78.26;94747.25;5132331;27;20193;-72
2022/09/20 03:35:01;;;;;;;1.20;0.88;;;;;;;8.09;77.34;94752.16;5132174;27;20220;-72
2022/09/20 03:37:49;;;;;;;0.25;0.25;;;;;;;8.07;77.67;94753.56;5132314;27;20193;-74
2022/09/20 03:40:52;;;;;;;0.75;0.75;;;;;;;8.04;77.96;94748.81;5131454;27;20200;-72
2022/09/20 03:43:30;;;;;;;0.60;0.60;;;;;;;8.05;77.79;94748.50;5132136;27;20205;-73
2022/09/20 03:46:12;;;;;;;1.10;1.00;;;;;;;8.00;77.92;94753.22;5131353;27;20695;-72
2022/09/20 03:49:14;;;;;;;1.20;0.90;;;;;;;8.04;77.72;94752.31;5132267;27;20251;-72
2022/09/20 03:51:48;;;;;;;1.70;0.90;;;;;;;8.08;77.34;94749.75;5105320;27;20249;-72
2022/09/20 03:54:34;;;;;;;0.80;0.80;;;;;;;8.04;77.14;94738.03;5132081;27;20227;-72
2022/09/20 03:57:26;;;;;;;0.70;0.70;;;;;;;8.03;76.83;94742.63;5132029;27;20738;-72
2022/09/20 04:00:06;;;;;;;0.60;0.60;;;;;;;7.99;77.51;94751.63;5131433;27;20229;-75
2022/09/20 04:02:46;;;;;;;0.70;0.70;;;;;;;7.95;77.20;94750.63;5131157;27;20228;-73
2022/09/20 04:05:17;;;;;;;1.00;0.90;;;;;;;7.93;77.29;94759.03;5132007;27;20265;-70
2022/09/20 04:07:59;;;;;;;0.20;0.20;;;;;;;7.88;77.54;94756.47;5131999;27;20387;-72
2022/09/20 04:10:41;;;;;;;0.20;0.20;;;;;;;7.85;77.58;94763.28;5130008;27;20660;-71
2022/09/20 04:13:22;;;;;;;0.20;0.20;;;;;;;7.88;77.34;94767.28;5119716;27;20189;-71
2022/09/20 04:16:03;;;;;;;0.20;0.20;;;;;;;7.87;77.35;94773.75;5132263;27;20205;-71
2022/09/20 04:18:36;;;;;;;0.20;0.20;;;;;;;7.87;78.04;94781.06;5131720;27;20196;-71
2022/09/20 04:21:10;;;;;;;0.10;0.10;;;;;;;7.95;77.57;94780.31;5132287;27;20586;-72
2022/09/20 04:23:47;;;;;;;0.22;0.22;;;;;;;8.00;77.43;94774.81;5130829;27;20246;-72
2022/09/20 04:26:20;;;;;;;0.82;0.70;;;;;;;8.02;77.54;94783.38;5130549;27;20259;-73
2022/09/20 04:28:52;;;;;;;0.52;0.50;;;;;;;8.05;77.55;94783.56;5131514;27;20258;-72
2022/09/20 04:31:33;;;;;;;0.95;0.93;;;;;;;8.32;76.90;94785.34;5131843;27;20272;-71
2022/09/20 04:34:02;;;;;;;0.75;0.68;;;;;;;8.75;75.35;94774.75;5131215;27;20699;-72
2022/09/20 04:36:36;;;;;;;0.20;0.20;;;;;;;8.92;74.37;94782.13;5131161;27;20254;-72
2022/09/20 04:39:15;;;;;;;0.38;0.38;;;;;;;9.49;73.25;94792.91;5132167;27;20188;-71
2022/09/20 04:42:14;;;;;;;0.20;0.20;;;;;;;10.45;69.65;94792.56;5131092;27;20233;-72
2022/09/20 04:45:17;;;;;;;0.30;0.30;;;;;;;11.18;66.10;94787.84;5131372;27;20649;-72
2022/09/20 04:48:17;;;;;;;0.20;0.20;;;;;;;11.34;65.39;94780.69;5117780;27;20208;-72
2022/09/20 04:51:28;;;;;;;0.20;0.20;;;;;;;12.41;61.49;94779.25;5081187;28;20194;-73
2022/09/20 04:54:24;;;;;;;0.30;0.30;;;;;;;12.35;60.67;94781.38;5051773;28;20198;-72
2022/09/20 04:57:13;;;;;;;0.32;0.32;;;;;;;12.63;59.85;94770.69;5075014;28;20580;-72
2022/09/20 04:59:56;;;;;;;0.32;0.32;;;;;;;13.10;58.72;94767.59;5090156;28;20782;-71
2022/09/20 05:02:54;;;;;;;0.22;0.22;;;;;;;13.90;56.03;94778.63;5090560;28;20198;-72
2022/09/20 05:05:46;;;;;;;0.50;0.50;;;;;;;13.95;56.37;94775.66;5080934;28;20342;-71
2022/09/20 05:08:47;;;;;;;0.13;0.13;;;;;;;15.08;52.42;94771.72;5077706;28;20232;-73
2022/09/20 05:11:33;;;;;;;0.30;0.30;;;;;;;15.22;51.99;94763.88;5090375;28;20704;-71
2022/09/20 05:14:30;;;;;;;1.08;0.68;;;;;;;14.64;53.34;94771.75;5090271;28;20202;-71
2022/09/20 05:17:13;;;;;;;0.10;0.10;;;;;;;14.80;52.80;94780.75;5056390;28;20293;-71
2022/09/20 05:19:54;;;;;;;0.20;0.20;;;;;;;15.34;52.51;94785.59;5078412;28;20412;-71
2022/09/20 05:22:42;;;;;;;0.30;0.30;;;;;;;14.48;53.66;94779.13;5090386;28;20199;-70
2022/09/20 05:25:29;;;;;;;0.57;0.57;;;;;;;14.46;53.65;94784.13;5087556;28;20669;-71
2022/09/20 05:28:01;;;;;;;0.50;0.50;;;;;;;14.45;53.73;94785.28;5089789;28;20667;-73
2022/09/20 05:30:38;;;;;;;0.63;0.50;;;;;;;15.65;52.00;94784.81;5089547;28;20187;-71
2022/09/20 05:33:22;;;;;;;0.40;0.40;;;;;;;14.50;53.25;94774.91;5089811;28;20272;-71
2022/09/20 05:36:00;;;;;;;0.60;0.60;;;;;;;15.39;51.72;94788.06;5076862;28;20194;-73
2022/09/20 05:38:41;;;;;;;0.68;0.60;;;;;;;15.41;51.65;94769.41;5089889;28;20232;-70
2022/09/20 05:41:17;;;;;;;0.20;0.20;;;;;;;15.53;51.61;94785.69;5090470;28;20229;-72
2022/09/20 05:43:53;;;;;;;0.10;0.10;;;;;;;15.35;51.64;94792.66;5089914;28;20194;-72
2022/09/20 05:46:35;;;;;;;0.10;0.10;;;;;;;16.18;49.73;94779.72;5090165;28;20213;-72
2022/09/20 05:49:12;;;;;;;2.05;0.60;;;;;;;16.74;48.55;94774.59;5107023;27;20229;-72
2022/09/20 05:52:07;;;;;;;0.38;0.38;;;;;;;16.22;48.87;94770.44;5130389;28;20185;-72
2022/09/20 05:54:57;;;;;;;0.10;0.10;;;;;;;16.99;47.56;94773.09;5131146;27;20250;-72
2022/09/20 05:57:37;;;;;;;0.52;0.20;;;;;;;17.04;46.63;94769.25;5128144;28;20262;-72
2022/09/20 06:00:10;;;;;;;0.10;0.10;;;;;;;16.93;47.47;94771.03;5130503;28;20201;-73
2022/09/20 06:02:47;;;;;;;0.20;0.20;;;;;;;15.66;49.73;94777.41;5130145;28;20815;-73
2022/09/20 06:05:17;;;;;;;0.20;0.20;;;;;;;16.52;48.79;94767.13;5129891;28;20205;-72
2022/09/20 06:08:02;;;;;;;1.40;0.82;;;;;;;17.45;45.83;94772.28;5129433;28;20746;-74
2022/09/20 06:11:00;;;;;;;0.13;0.13;;;;;;;16.25;47.96;94772.47;5130065;28;20208;-71
2022/09/20 06:13:45;;;;;;;0.30;0.30;;;;;;;15.77;50.06;94789.34;5113513;28;20257;-71
2022/09/20 06:16:18;;;;;;;0.60;0.60;;;;;;;15.18;50.93;94787.53;5130571;27;20185;-73
2022/09/20 06:18:57;;;;;;;0.57;0.57;;;;;;;16.53;48.53;94779.63;5129731;27;20221;-70
2022/09/20 06:21:36;;;;;;;0.30;0.30;;;;;;;17.01;46.76;94773.50;5118438;28;20197;-73
2022/09/20 06:24:12;;;;;;;0.40;0.40;;;;;;;16.04;48.85;94777.47;5129839;27;20615;-71
2022/09/20 06:26:41;;;;;;;0.60;0.50;;;;;;;14.80;52.30;94783.50;5126258;28;20245;-71
2022/09/20 06:29:13;;;;;;;0.20;0.20;;;;;;;15.71;50.30;94782.59;5129173;28;20250;-73
2022/09/20 06:31:40;;;;;;;0.43;0.43;;;;;;;15.20;51.42;94785.25;5128893;28;20238;-75
2022/09/20 06:34:13;;;;;;;0.20;0.20;;;;;;;15.01;52.54;94793.38;5129721;28;20246;-73
2022/09/20 06:42:22;;;;;;;0.20;0.20;;;;;;;15.32;50.92;94793.34;5127173;28;20242;-71
2022/09/20 06:44:49;;;;;;;0.20;0.20;;;;;;;15.80;51.33;94780.47;5129606;28;20197;-71
2022/09/20 06:47:16;;;;;;;0.10;0.10;;;;;;;16.24;50.59;94770.88;5132634;27;20730;-70
2022/09/20 06:49:46;;;;;;;0.15;0.15;;;;;;;17.15;48.34;94769.44;5133457;27;20229;-71
2022/09/20 06:52:15;;;;;;;0.17;0.17;;;;;;;16.26;48.85;94787.69;5132986;27;20201;-75
2022/09/20 06:54:44;;;;;;;0.20;0.20;;;;;;;15.77;50.80;94781.97;5133598;27;20200;-72
2022/09/20 06:57:14;;;;;;;0.20;0.20;;;;;;;15.02;52.42;94792.22;5133009;27;20221;-73
2022/09/20 06:59:41;;;;;;;0.10;0.10;;;;;;;14.89;52.95;94795.03;5133743;27;20205;-72
2022/09/20 07:02:09;;;;;;;0.17;0.17;;;;;;;15.29;52.33;94802.28;5133342;27;20197;-71
2022/09/20 07:04:36;;;;;;;0.20;0.20;;;;;;;14.47;54.28;94802.09;5133561;27;20213;-71
2022/09/20 07:07:07;;;;;;;0.20;0.20;;;;;;;14.23;55.46;94794.75;5133198;27;20229;-71
2022/09/20 07:09:33;;;;;;;0.20;0.20;;;;;;;15.04;54.01;94793.44;5132949;27;20205;-71
2022/09/20 07:12:00;;;;;;;0.10;0.10;;;;;;;14.89;52.90;94797.78;5132895;27;20230;-74
2022/09/20 07:14:29;;;;;;;0.10;0.10;;;;;;;14.76;53.50;94793.50;5133200;27;20197;-71
2022/09/20 07:16:55;;;;;;;0.15;0.15;;;;;;;14.59;54.13;94804.75;5132251;27;20723;-72
2022/09/20 07:19:22;;;;;;;0.10;0.10;;;;;;;14.83;53.26;94804.63;5132700;27;20290;-73
2022/09/20 07:21:49;;;;;;;0.15;0.15;;;;;;;14.67;53.24;94805.72;5132511;27;20687;-75
2022/09/20 07:24:18;;;;;;;0.28;0.28;;;;;;;14.30;53.21;94797.69;5132591;27;20193;-72
2022/09/20 07:26:56;;;;;;;0.30;0.30;;;;;;;13.80;54.92;94800.91;5132478;27;20225;-74
2022/09/20 07:29:23;;;;;;;0.20;0.20;;;;;;;13.74;56.22;94797.63;5133199;27;20200;-71
2022/09/20 07:31:49;;;;;;;0.20;0.20;;;;;;;13.43;56.34;94798.22;5132396;27;20759;-74
2022/09/20 07:34:19;;;;;;;0.20;0.20;;;;;;;13.34;56.58;94811.16;5132945;27;20205;-71
2022/09/20 07:36:46;;;;;;;0.10;0.10;;;;;;;13.63;57.07;94804.66;5132594;27;20240;-71
2022/09/20 07:39:13;;;;;;;0.10;0.10;;;;;;;14.20;56.30;94793.53;5132588;27;20667;-73
2022/09/20 07:41:42;;;;;;;0.47;0.43;;;;;;;13.78;55.54;94786.84;5132856;27;20275;-74
2022/09/20 07:44:27;;;;;;;0.35;0.35;;;;;;;13.48;56.21;94800.72;5132451;27;20208;-74
2022/09/20 07:46:56;;;;;;;0.40;0.40;;;;;;;13.52;55.41;94800.84;5132166;27;20248;-73
2022/09/20 07:49:24;;;;;;;0.47;0.47;;;;;;;13.30;56.76;94799.34;5132257;27;20241;-73
2022/09/20 07:51:51;;;;;;;0.20;0.20;;;;;;;13.70;55.78;94793.19;5132267;27;20205;-80
2022/09/20 07:54:18;;;;;;;0.15;0.15;;;;;;;13.81;53.83;94791.56;5132030;27;20605;-73
2022/09/20 07:56:46;;;;;;;0.20;0.20;;;;;;;13.54;55.02;94798.53;5131605;27;20337;-75
2022/09/20 07:59:14;;;;;;;0.10;0.10;;;;;;;13.47;55.17;94793.69;5131872;27;20220;-74
2022/09/20 08:01:41;;;;;;;0.10;0.10;;;;;;;13.52;55.22;94785.28;5132030;27;20627;-73
2022/09/20 08:04:09;;;;;;;0.20;0.20;;;;;;;13.52;55.73;94790.75;5131906;27;20634;-73
2022/09/20 08:06:37;;;;;;;0.30;0.30;;;;;;;14.01;55.67;94785.19;5131940;27;20225;-72
2022/09/20 08:09:04;;;;;;;0.45;0.40;;;;;;;14.18;54.25;94784.91;5131929;27;20478;-73
2022/09/20 08:11:32;;;;;;;0.25;0.25;;;;;;;14.02;54.11;94781.31;5131680;27;20942;-78
2022/09/20 08:14:00;;;;;;;0.15;0.15;;;;;;;14.50;53.09;94779.56;5131675;27;20204;-73
2022/09/20 08:16:28;;;;;;;0.20;0.20;;;;;;;14.37;53.05;94781.53;5132006;27;20208;-73
2022/09/20 08:18:58;;;;;;;0.10;0.10;;;;;;;14.18;52.71;94776.72;5131099;27;20281;-73
2022/09/20 08:21:25;;;;;;;0.10;0.10;;;;;;;13.88;53.46;94791.81;5131640;27;20208;-74
2022/09/20 08:23:52;;;;;;;0.75;0.32;;;;;;;14.46;52.64;94786.88;5131101;27;20217;-73
2022/09/20 08:26:23;;;;;;;0.20;0.20;;;;;;;14.58;52.34;94790.31;5131040;27;20282;-72
2022/09/20 08:28:52;;;;;;;0.10;0.10;;;;;;;14.68;51.83;94786.28;5131580;27;20720;-75
2022/09/20 08:31:22;;;;;;;0.10;0.10;;;;;;;14.12;52.21;94783.56;5131452;27;20196;-72
2022/09/20 08:33:51;;;;;;;0.20;0.20;;;;;;;14.72;52.54;94780.94;5131545;27;20227;-72
2022/09/20 08:36:20;;;;;;;0.20;0.20;;;;;;;15.05;49.67;94772.41;5131430;27;20584;-72
2022/09/20 08:38:48;;;;;;;0.30;0.30;;;;;;;14.75;50.45;94770.13;5131365;27;20296;-71
2022/09/20 08:41:19;;;;;;;0.20;0.20;;;;;;;14.59;51.03;94761.13;5130979;27;20208;-71
2022/09/20 08:43:50;;;;;;;0.30;0.30;;;;;;;14.50;51.78;94765.94;5131678;27;20256;-71
2022/09/20 08:46:24;;;;;;;0.32;0.32;;;;;;;15.01;50.49;94763.38;5131184;27;20252;-74
2022/09/20 08:48:52;;;;;;;0.20;0.20;;;;;;;15.12;51.23;94767.16;5129852;27;20268;-74
2022/09/20 08:51:20;;;;;;;0.28;0.28;;;;;;;15.60;48.87;94747.63;5131164;27;20285;-71
2022/09/20 08:53:49;;;;;;;0.10;0.10;;;;;;;15.09;49.48;94756.94;5130833;27;20261;-73
2022/09/20 08:56:17;;;;;;;0.30;0.30;;;;;;;14.81;48.77;94762.47;5130671;27;20204;-72
2022/09/20 08:58:45;;;;;;;0.10;0.10;;;;;;;14.89;48.92;94762.31;5112526;27;20236;-71
2022/09/20 09:01:18;;;;;;;0.30;0.30;;;;;;;14.88;48.66;94765.38;5130570;27;20196;-72
2022/09/20 09:03:47;;;;;;;0.10;0.10;;;;;;;15.03;47.29;94770.06;5131135;27;20205;-72
2022/09/20 09:06:18;;;;;;;0.15;0.15;;;;;;;15.21;49.30;94754.09;5130699;27;20196;-71
2022/09/20 09:08:52;;;;;;;0.50;0.40;;;;;;;15.68;48.24;94745.06;5130491;27;20670;-72
2022/09/20 09:11:22;;;;;;;0.40;0.40;;;;;;;15.97;48.21;94741.81;5130694;27;20238;-72
2022/09/20 09:13:54;;;;;;;0.10;0.10;;;;;;;15.86;48.74;94735.31;5130261;27;20205;-74
2022/09/20 09:16:23;;;;;;;0.10;0.10;;;;;;;16.14;48.57;94729.63;5117140;27;20709;-72
2022/09/20 09:18:52;;;;;;;0.13;0.13;;;;;;;15.60;49.53;94736.72;5129918;27;20706;-73
2022/09/20 09:21:22;;;;;;;0.10;0.10;;;;;;;16.17;48.41;94735.19;5130978;27;20205;-72
2022/09/20 09:23:56;;;;;;;0.10;0.10;;;;;;;16.49;46.86;94729.53;5130155;27;20205;-73
2022/09/20 09:26:25;;;;;;;0.20;0.20;;;;;;;16.14;45.51;94735.91;5130979;27;20188;-72
2022/09/20 09:29:17;;;;;;;0.20;0.20;;;;;;;16.40;45.84;94720.78;5130007;27;20205;-72
2022/09/20 09:31:46;;;;;;;0.10;0.10;;;;;;;16.53;46.93;94719.47;5130664;27;20220;-72
2022/09/20 09:34:25;;;;;;;0.43;0.40;;;;;;;16.67;47.82;94719.75;5130446;27;20698;-72
2022/09/20 09:36:54;;;;;;;0.20;0.20;;;;;;;16.09;46.88;94722.53;5130377;27;20688;-72
2022/09/20 09:39:24;;;;;;;0.10;0.10;;;;;;;15.81;47.09;94713.75;5130202;28;20193;-73
2022/09/20 09:41:51;;;;;;;0.20;0.20;;;;;;;15.47;48.69;94713.38;5130295;28;20205;-72
2022/09/20 09:44:23;;;;;;;0.47;0.45;;;;;;;15.64;48.15;94715.75;5129991;28;20249;-72
2022/09/20 09:46:52;;;;;;;0.20;0.20;;;;;;;16.56;46.10;94713.25;5130208;28;20229;-71
2022/09/20 09:49:20;;;;;;;0.10;0.10;;;;;;;16.56;45.90;94703.09;5129542;27;20233;-73
2022/09/20 09:52:11;;;;;;;0.20;0.20;;;;;;;16.70;46.07;94706.13;5130666;28;20205;-73
2022/09/20 09:54:40;;;;;;;0.20;0.20;;;;;;;16.12;46.28;94710.88;5129965;28;20614;-74
2022/09/20 09:57:20;;;;;;;0.50;0.50;;;;;;;15.44;47.63;94719.56;5130604;27;20220;-74
2022/09/20 10:00:01;;;;;;;0.10;0.10;;;;;;;15.20;48.49;94708.84;5129875;27;20208;-73
2022/09/20 10:03:00;;;;;;;0.10;0.10;;;;;;;15.37;48.83;94718.59;5130477;28;20262;-74
2022/09/20 10:05:32;;;;;;;0.30;0.30;;;;;;;15.45;47.75;94721.13;5130552;28;20201;-73
2022/09/20 10:08:14;;;;;;;0.52;0.52;;;;;;;15.52;47.98;94713.09;5130152;28;20269;-73
2022/09/20 10:10:58;;;;;;;0.35;0.30;;;;;;;15.37;46.24;94713.94;5129867;28;20249;-73
2022/09/20 10:13:32;;;;;;;0.40;0.40;;;;;;;16.05;46.11;94704.47;5130190;28;20636;-73
2022/09/20 10:16:08;;;;;;;0.20;0.20;;;;;;;16.10;45.57;94702.25;5129874;28;20201;-73
2022/09/20 10:18:43;;;;;;;0.82;0.52;;;;;;;16.39;45.06;94702.81;5130012;28;20224;-72
2022/09/20 10:21:24;;;;;;;0.20;0.20;;;;;;;16.52;44.91;94685.06;5117407;27;20737;-72
2022/09/20 10:24:05;;;;;;;0.20;0.20;;;;;;;16.07;46.00;94700.25;5133411;27;20666;-73
2022/09/20 10:27:13;;;;;;;0.28;0.28;;;;;;;16.47;45.49;94699.81;5133148;27;20280;-72
2022/09/20 10:29:56;;;;;;;0.35;0.28;;;;;;;16.67;44.66;94700.63;5116090;27;20201;-74
2022/09/20 10:32:36;;;;;;;0.30;0.30;;;;;;;16.20;45.62;94701.66;5133401;27;20721;-73
2022/09/20 10:35:19;;;;;;;0.20;0.20;;;;;;;15.43;45.94;94707.06;5133386;27;20207;-73
2022/09/20 10:37:58;;;;;;;0.20;0.20;;;;;;;15.52;45.93;94696.72;5133078;27;20197;-73
2022/09/20 10:43:25;;;;;;;0.10;0.10;;;;;;;15.31;46.20;94701.69;5132171;27;20690;-72
2022/09/20 10:46:04;;;;;;;0.20;0.20;;;;;;;15.56;46.25;94697.63;5132826;27;20223;-73
2022/09/20 10:48:34;;;;;;;0.10;0.10;;;;;;;15.73;46.06;94692.88;5133144;27;20247;-77
2022/09/20 10:51:06;;;;;;;0.30;0.30;;;;;;;15.77;45.25;94689.09;5133361;27;20209;-72
2022/09/20 10:53:40;;;;;;;0.10;0.10;;;;;;;15.53;45.19;94695.56;5133536;27;20201;-73
2022/09/20 10:56:25;;;;;;;0.10;0.10;;;;;;;15.47;45.44;94701.66;5132747;27;20567;-72
2022/09/20 10:59:11;;;;;;;0.20;0.20;;;;;;;15.93;46.01;94702.69;5133239;27;20205;-73
2022/09/20 11:01:45;;;;;;;0.45;0.45;;;;;;;16.22;45.42;94693.91;5132824;27;20200;-72
2022/09/20 11:04:42;;;;;;;0.10;0.10;;;;;;;15.32;45.32;94695.09;5133265;27;20637;-76
2022/09/20 11:07:16;;;;;;;0.40;0.40;;;;;;;14.74;46.87;94711.28;5127575;27;20711;-71
2022/09/20 11:09:48;;;;;;;0.30;0.30;;;;;;;14.95;47.70;94705.53;5132335;27;20200;-72
2022/09/20 11:12:25;;;;;;;0.10;0.10;;;;;;;15.43;45.21;94690.69;5132717;27;20250;-73
2022/09/20 11:14:57;;;;;;;0.43;0.20;;;;;;;15.45;44.50;94688.38;5132572;27;20219;-73
2022/09/20 11:17:28;;;;;;;0.32;0.32;;;;;;;15.34;44.37;94690.06;5132742;27;20241;-74
2022/09/20 11:20:00;;;;;;;0.20;0.20;;;;;;;15.68;44.66;94674.06;5133123;27;20592;-72
2022/09/20 11:22:35;;;;;;;0.50;0.50;;;;;;;15.56;44.24;94681.25;5132755;27;20224;-73
2022/09/20 11:25:06;;;;;;;0.32;0.32;;;;;;;15.49;44.42;94678.31;5132585;27;20200;-73
2022/09/20 11:27:41;;;;;;;0.22;0.22;;;;;;;15.67;44.98;94672.47;5132654;27;20209;-74
2022/09/20 11:30:15;;;;;;;0.20;0.20;;;;;;;16.36;44.94;94666.03;5132912;27;20229;-73
2022/09/20 11:32:49;;;;;;;0.20;0.20;;;;;;;16.06;44.43;94684.19;5132355;27;20621;-72
2022/09/20 11:35:25;;;;;;;0.20;0.20;;;;;;;15.99;44.26;94679.38;5132638;27;20257;-73
2022/09/20 11:37:57;;;;;;;0.30;0.30;;;;;;;16.07;44.54;94675.63;5132435;27;20281;-72
2022/09/20 11:40:28;;;;;;;0.50;0.47;;;;;;;16.04;46.62;94681.81;5132486;27;20197;-73
2022/09/20 11:42:59;;;;;;;0.40;0.40;;;;;;;15.62;44.75;94677.06;5132837;27;20355;-75
2022/09/20 11:45:28;;;;;;;0.73;0.68;;;;;;;15.25;46.03;94670.38;5118650;27;20262;-72
2022/09/20 11:48:00;;;;;;;0.40;0.40;;;;;;;15.29;45.87;94676.72;5131578;27;20281;-72
2022/09/20 11:50:44;;;;;;;0.20;0.20;;;;;;;15.29;46.13;94676.72;5132193;27;20245;-72
2022/09/20 11:53:23;;;;;;;0.10;0.10;;;;;;;15.41;46.23;94654.75;5131970;27;20305;-73
2022/09/20 11:55:58;;;;;;;0.10;0.10;;;;;;;15.82;46.34;94656.03;5132848;27;20201;-73
2022/09/20 11:58:27;;;;;;;0.20;0.20;;;;;;;15.74;44.12;94646.09;5118211;27;20224;-72
2022/09/20 12:00:57;;;;;;;0.20;0.20;;;;;;;16.09;45.57;94645.22;5132391;27;20717;-74
2022/09/20 12:03:31;;;;;;;0.65;0.55;;;;;;;15.93;42.97;94653.50;5131717;27;20663;-73
2022/09/20 12:06:01;;;;;;;0.10;0.10;;;;;;;16.01;43.81;94649.75;5132017;27;20234;-73
2022/09/20 12:08:32;;;;;;;0.20;0.20;;;;;;;16.35;42.45;94648.03;5131885;27;20232;-73
2022/09/20 12:11:03;;;;;;;0.22;0.22;;;;;;;16.40;43.80;94649.69;5131924;27;20254;-72
2022/09/20 12:13:35;;;;;;;1.35;0.30;;;;;;;16.56;43.00;94642.16;5131888;27;20288;-72
2022/09/20 12:16:05;;;;;;;0.10;0.10;;;;;;;16.46;42.07;94640.03;5131806;27;20258;-74
2022/09/20 12:19:00;;;;;;;0.43;0.43;;;;;;;16.33;42.92;94640.22;5135216;27;20221;-74
2022/09/20 12:21:27;;;;;;;0.25;0.25;;;;;;;16.50;43.21;94632.69;5134135;27;20242;-73
2022/09/20 12:24:20;;;;;;;0.20;0.20;;;;;;;15.98;43.75;94640.34;5134173;27;20888;-73
2022/09/20 12:26:49;;;;;;;0.40;0.40;;;;;;;16.13;43.34;94641.38;5131604;27;20201;-78